Knoxville, IL (61448)

8:35 PM CDT on April 24, 2015 (GMT -0500)
KILKNOXV2 | | Change Station
CLOSE
Current Station
Personal Weather Station
Location: Knoxville, IL
Elevation: 773 ft
Nearby Weather Stations

Elev 773 ft 40.91 °N, 90.29 °W | Updated 3 minutes ago

Overcast
Overcast
52.8 °F
Feels Like 52.8 °F
N
2.0
Wind Variable Wind from ESE
Gusts 5.0 mph

Today
High -- | Low -- °F
--% Chance of Precip.
Yesterday
High -- | Low -- °F
Precip. -- in
6:09 AM 7:50 PM
Waxing Crescent, 41% visible
Pressure 29.78 in
Visibility 10.0 miles
Clouds Overcast 4800 ft
Dew Point 42 °F
Humidity 68%
Rainfall 0.03 in
Snow Depth Not available.
UV 0 out of 12
Pollen 10.00 out of 12
Air Quality Not available.
Flu Activity Regional
METAR KGBG 250115Z AUTO 08008KT 10SM VCTS OVC048 12/05 A2978 RMK AO2 LTG DSNT NW T01200045

More Conditions Fewer Conditions

Pressure 29.78 in
Visibility 10.0 miles
Clouds Overcast 4800 ft
Dew Point 42 °F
Humidity 68%
Rainfall 0.03 in
Snow Depth Not available.
UV 0 out of 12
Pollen 10.00 out of 12
Air Quality Not available.
Flu Activity Regional
METAR KGBG 250115Z AUTO 08008KT 10SM VCTS OVC048 12/05 A2978 RMK AO2 LTG DSNT NW T01200045

More Conditions Fewer Conditions

10-Day Weather Forecast

Almanac

Astronomy

Apr. 24, 2015 Rise Set
Actual Time
Civil Twilight
Nautical Twilight
Astronomical Twilight
Moon
Length of Visible Light
Length of Day
Tomorrow will be .
, % of the Moon is Illuminated

Today's Extremes

State Highs State Lows

Community

WunderPhotos

Upload Photos

1,816,551 photos uploaded!

WunderBlogs® & News

Nearby

Air Quality

  Air Quality AQ Index Pollutant
Not available.

Snow Depth

Station Depth Elevation

Earthquake Activity

City Distance Mag. Time & Date
Minimum magnitude displayed is 2.5.

Coastal Water Temperatures

Place Temperature

Stations

Nearby Weather Stations

Station Location Temp. Windchill Dew Point Humidity Wind Precip. Elev Updated Type